createdAt,value
2023-05-19T00:01:24.937Z,100899.22
2023-05-19T00:03:57.472Z,100894.25
2023-05-19T00:06:31.588Z,100876.56
2023-05-19T00:09:00.825Z,100884.81
2023-05-19T00:11:29.153Z,100889.16
2023-05-19T00:13:58.977Z,100892.72
2023-05-19T00:16:28.504Z,100901.22
2023-05-19T00:18:57.982Z,100890.00
2023-05-19T00:21:24.922Z,100903.91
2023-05-19T00:23:52.161Z,100899.09
2023-05-19T00:26:19.344Z,100896.50
2023-05-19T00:28:46.307Z,100892.94
2023-05-19T00:31:13.206Z,100888.59
2023-05-19T00:33:40.472Z,100886.25
2023-05-19T00:36:08.467Z,100876.06
2023-05-19T00:38:37.336Z,100879.84
2023-05-19T00:41:05.929Z,100881.25
2023-05-19T00:43:34.415Z,100863.22
2023-05-19T00:46:01.892Z,100883.16
2023-05-19T00:48:29.253Z,100883.72
2023-05-19T00:51:02.349Z,100868.78
2023-05-19T00:53:31.496Z,100873.47
2023-05-19T00:55:59.746Z,100868.06
2023-05-19T00:58:30.307Z,100872.31
2023-05-19T01:01:05.342Z,100882.13
2023-05-19T01:03:37.449Z,100879.63
2023-05-19T01:06:08.040Z,100878.94
2023-05-19T01:08:38.211Z,100871.63
2023-05-19T01:11:06.870Z,100873.63
2023-05-19T01:13:35.895Z,100863.97
2023-05-19T01:16:33.762Z,100858.97
2023-05-19T01:19:38.697Z,100866.53
2023-05-19T01:22:42.695Z,100857.38
2023-05-19T01:25:30.786Z,100850.63
2023-05-19T01:28:21.572Z,100859.81
2023-05-19T01:30:56.617Z,100854.84
2023-05-19T01:33:25.123Z,100856.28
2023-05-19T01:35:53.599Z,100869.38
2023-05-19T01:38:22.126Z,100861.00
2023-05-19T01:40:50.702Z,100858.50
2023-05-19T01:43:21.926Z,100862.28
2023-05-19T01:45:49.905Z,100863.25
2023-05-19T01:48:18.451Z,100861.22
2023-05-19T01:50:46.256Z,100870.66
2023-05-19T01:53:13.718Z,100878.41
2023-05-19T01:55:49.529Z,100876.19
2023-05-19T01:58:49.368Z,100880.78
2023-05-19T02:01:26.438Z,100876.16
2023-05-19T02:04:30.402Z,100888.22
2023-05-19T02:07:17.421Z,100873.47
2023-05-19T02:10:24.401Z,100870.75
2023-05-19T02:12:54.462Z,100868.53
2023-05-19T02:15:28.638Z,100872.56
2023-05-19T02:17:58.144Z,100875.50
2023-05-19T02:20:25.149Z,100875.16
2023-05-19T02:22:52.143Z,100867.13
2023-05-19T02:25:19.123Z,100872.94
2023-05-19T02:27:46.428Z,100871.84
2023-05-19T02:30:13.515Z,100869.13
2023-05-19T02:32:40.606Z,100869.84
2023-05-19T02:35:08.165Z,100871.16
2023-05-19T02:37:35.351Z,100868.31
2023-05-19T02:40:02.303Z,100872.31
2023-05-19T02:42:29.226Z,100862.78
2023-05-19T02:44:56.385Z,100870.78
2023-05-19T02:47:23.497Z,100857.25
2023-05-19T02:49:50.388Z,100859.94
2023-05-19T02:52:17.360Z,100863.38
2023-05-19T02:54:44.489Z,100857.47
2023-05-19T02:57:11.654Z,100858.88
2023-05-19T02:59:38.745Z,100849.47
2023-05-19T03:02:05.800Z,100852.03
2023-05-19T03:04:32.919Z,100861.22
2023-05-19T03:06:59.893Z,100867.38
2023-05-19T03:09:26.915Z,100863.31
2023-05-19T03:11:53.824Z,100859.00
2023-05-19T03:14:23.845Z,100859.94
2023-05-19T03:16:51.389Z,100861.22
2023-05-19T03:19:18.669Z,100853.31
2023-05-19T03:21:46.317Z,100857.22
2023-05-19T03:24:13.719Z,100853.94
2023-05-19T03:26:41.058Z,100857.16
2023-05-19T03:29:08.329Z,100872.16
2023-05-19T03:31:35.240Z,100875.72
2023-05-19T03:34:03.218Z,100868.34
2023-05-19T03:36:32.854Z,100874.16
2023-05-19T03:38:59.858Z,100880.06
2023-05-19T03:41:26.845Z,100879.44
2023-05-19T03:43:53.734Z,100876.50
2023-05-19T03:46:20.923Z,100873.00
2023-05-19T03:48:48.151Z,100879.53
2023-05-19T03:51:15.150Z,100886.50
2023-05-19T03:53:42.495Z,100883.84
2023-05-19T03:56:13.583Z,100883.03
2023-05-19T03:58:45.036Z,100884.28
2023-05-19T04:01:12.183Z,100885.94
2023-05-19T04:03:39.437Z,100886.44
2023-05-19T04:06:06.740Z,100886.41
2023-05-19T04:08:33.768Z,100887.22
2023-05-19T04:11:00.833Z,100892.22
2023-05-19T04:13:27.854Z,100892.72
2023-05-19T04:15:54.951Z,100891.94
2023-05-19T04:18:22.176Z,100880.50
2023-05-19T04:20:49.285Z,100881.03
2023-05-19T04:23:16.201Z,100886.41
2023-05-19T04:25:43.377Z,100888.16
2023-05-19T04:28:10.412Z,100898.81
2023-05-19T04:30:38.607Z,100896.84
2023-05-19T04:33:05.679Z,100898.00
2023-05-19T04:35:32.749Z,100897.06
2023-05-19T04:38:00.060Z,100895.63
2023-05-19T04:40:27.636Z,100900.81
2023-05-19T04:42:54.567Z,100897.53
2023-05-19T04:45:21.456Z,100895.19
2023-05-19T04:47:48.830Z,100894.38
2023-05-19T04:50:16.887Z,100885.03
2023-05-19T04:52:45.725Z,100894.97
2023-05-19T04:55:13.167Z,100894.72
2023-05-19T04:57:40.855Z,100892.25
2023-05-19T05:00:12.182Z,100895.69
2023-05-19T05:02:39.371Z,100890.69
2023-05-19T05:05:07.261Z,100892.72
2023-05-19T05:07:34.198Z,100893.53
2023-05-19T05:10:01.637Z,100893.16
2023-05-19T05:12:28.808Z,100893.03
2023-05-19T05:14:56.120Z,100892.19
2023-05-19T05:17:23.509Z,100892.44
2023-05-19T05:19:51.074Z,100886.00
2023-05-19T05:22:18.400Z,100897.44
2023-05-19T05:24:46.078Z,100898.03
2023-05-19T05:27:13.677Z,100892.56
2023-05-19T05:29:40.629Z,100895.72
2023-05-19T05:32:08.123Z,100887.59
2023-05-19T05:34:35.998Z,100879.81
2023-05-19T05:37:03.061Z,100884.78
2023-05-19T05:39:30.115Z,100878.53
2023-05-19T05:41:57.037Z,100879.16
2023-05-19T05:44:23.956Z,100881.53
2023-05-19T05:46:51.383Z,100876.75
2023-05-19T05:49:18.685Z,100871.13
2023-05-19T05:51:54.688Z,100868.94
2023-05-19T05:54:32.773Z,100866.03
2023-05-19T05:57:00.678Z,100871.47
2023-05-19T05:59:27.723Z,100869.53
2023-05-19T06:01:54.894Z,100854.75
2023-05-19T06:04:22.125Z,100863.75
2023-05-19T06:06:49.138Z,100861.22
2023-05-19T06:09:16.322Z,100852.84
2023-05-19T06:11:43.217Z,100871.31
2023-05-19T06:14:10.545Z,100860.78
2023-05-19T06:16:37.610Z,100849.69
2023-05-19T06:19:04.925Z,100857.44
2023-05-19T06:21:31.910Z,100858.91
2023-05-19T06:23:59.165Z,100837.06
2023-05-19T06:26:26.569Z,100840.06
2023-05-19T06:28:53.627Z,100842.22
2023-05-19T06:31:20.723Z,100840.69
2023-05-19T06:33:47.704Z,100834.91
2023-05-19T06:36:14.644Z,100832.84
2023-05-19T06:38:41.656Z,100829.38
2023-05-19T06:41:09.061Z,100824.94
2023-05-19T06:43:36.076Z,100819.09
2023-05-19T06:46:03.197Z,100812.59
2023-05-19T06:48:31.017Z,100821.31
2023-05-19T06:50:57.921Z,100829.34
2023-05-19T06:53:24.842Z,100826.03
2023-05-19T06:55:59.375Z,100823.94
2023-05-19T06:58:27.813Z,100810.34
2023-05-19T07:00:54.928Z,100816.91
2023-05-19T07:03:21.989Z,100813.03
2023-05-19T07:05:49.382Z,100818.00
2023-05-19T07:08:16.382Z,100813.72
2023-05-19T07:10:43.292Z,100807.03
2023-05-19T07:13:10.245Z,100789.78
2023-05-19T07:15:37.267Z,100776.97
2023-05-19T07:18:04.344Z,100780.53
2023-05-19T07:20:31.502Z,100773.72
2023-05-19T07:22:58.631Z,100773.53
2023-05-19T07:25:27.179Z,100773.22
2023-05-19T07:27:54.227Z,100772.41
2023-05-19T07:30:21.320Z,100769.81
2023-05-19T07:32:48.381Z,100771.69
2023-05-19T07:35:15.472Z,100770.81
2023-05-19T07:37:42.550Z,100760.72
2023-05-19T07:40:10.233Z,100774.03
2023-05-19T07:42:37.198Z,100762.94
2023-05-19T07:45:04.633Z,100767.09
2023-05-19T07:47:31.843Z,100760.66
2023-05-19T07:49:58.988Z,100768.94
2023-05-19T07:52:25.944Z,100764.63
2023-05-19T07:54:53.185Z,100762.16
2023-05-19T07:57:20.405Z,100758.91
2023-05-19T07:59:47.349Z,100758.72
2023-05-19T08:02:14.383Z,100768.13
2023-05-19T08:04:41.555Z,100758.94
2023-05-19T08:07:08.722Z,100758.97
2023-05-19T08:09:35.814Z,100751.38
2023-05-19T08:12:04.881Z,100757.81
2023-05-19T08:14:33.348Z,100745.19
2023-05-19T08:17:00.320Z,100742.25
2023-05-19T08:19:27.406Z,100754.38
2023-05-19T08:21:54.470Z,100741.94
2023-05-19T08:24:21.379Z,100744.88
2023-05-19T08:26:48.317Z,100737.84
2023-05-19T08:29:15.240Z,100740.75
2023-05-19T08:31:42.216Z,100730.88
2023-05-19T08:34:09.433Z,100728.03
2023-05-19T08:36:36.458Z,100728.97
2023-05-19T08:39:03.542Z,100718.69
2023-05-19T08:41:30.598Z,100719.19
2023-05-19T08:43:57.746Z,100729.13
2023-05-19T08:46:26.236Z,100718.56
2023-05-19T08:49:03.463Z,100710.25
2023-05-19T08:51:31.194Z,100708.13
2023-05-19T08:54:08.449Z,100698.06
2023-05-19T08:56:35.788Z,100705.72
2023-05-19T08:59:04.111Z,100696.28
2023-05-19T09:01:31.630Z,100699.38
2023-05-19T09:03:59.080Z,100686.63
2023-05-19T09:06:27.346Z,100688.59
2023-05-19T09:08:54.470Z,100683.69
2023-05-19T09:11:22.615Z,100675.47
2023-05-19T09:13:49.859Z,100667.41
2023-05-19T09:16:17.934Z,100660.78
2023-05-19T09:18:56.773Z,100669.84
2023-05-19T09:21:42.125Z,100659.09
2023-05-19T09:24:10.237Z,100648.75
2023-05-19T09:26:39.823Z,100657.78
2023-05-19T09:29:17.867Z,100650.69
2023-05-19T09:31:56.112Z,100655.88
2023-05-19T09:34:24.938Z,100653.44
2023-05-19T09:36:53.361Z,100658.38
2023-05-19T09:39:22.848Z,100646.66
2023-05-19T09:41:59.847Z,100650.38
2023-05-19T09:44:31.180Z,100662.00
2023-05-19T09:46:58.794Z,100650.25
2023-05-19T09:49:32.635Z,100647.91
2023-05-19T09:52:03.549Z,100651.34
2023-05-19T09:54:32.524Z,100642.91
2023-05-19T09:57:03.606Z,100627.22
2023-05-19T09:59:33.345Z,100614.72
2023-05-19T10:02:02.175Z,100613.28
2023-05-19T10:04:31.663Z,100601.38
2023-05-19T10:07:00.088Z,100615.16
2023-05-19T10:09:29.457Z,100620.16
2023-05-19T10:11:58.836Z,100610.31
2023-05-19T10:14:27.958Z,100619.44
2023-05-19T10:16:57.567Z,100614.78
2023-05-19T10:19:26.945Z,100606.81
2023-05-19T10:21:54.457Z,100609.44
2023-05-19T10:24:21.801Z,100607.91
2023-05-19T10:27:03.466Z,100626.28
2023-05-19T10:29:36.954Z,100598.19
2023-05-19T10:32:11.849Z,100597.44
2023-05-19T10:35:09.485Z,100587.19
2023-05-19T10:38:06.487Z,100586.81
2023-05-19T10:41:10.287Z,100611.78
2023-05-19T10:44:05.509Z,100602.78
2023-05-19T10:46:32.647Z,100586.53
2023-05-19T10:48:59.868Z,100577.81
2023-05-19T10:51:34.804Z,100562.38
2023-05-19T10:54:11.005Z,100567.66
2023-05-19T10:56:43.828Z,100558.50
2023-05-19T10:59:32.396Z,100552.50
2023-05-19T11:02:04.838Z,100551.91
2023-05-19T11:04:51.793Z,100543.44
2023-05-19T11:07:21.762Z,100551.81
2023-05-19T11:09:54.903Z,100548.13
2023-05-19T11:12:24.682Z,100554.91
2023-05-19T11:14:55.871Z,100553.72
2023-05-19T11:17:25.629Z,100559.50
2023-05-19T11:19:55.854Z,100553.56
2023-05-19T11:22:28.468Z,100556.84
2023-05-19T11:24:55.932Z,100562.88
2023-05-19T11:27:33.829Z,100563.22
2023-05-19T11:30:08.105Z,100542.00
2023-05-19T11:32:39.267Z,100539.28
2023-05-19T11:35:08.125Z,100541.19
2023-05-19T11:37:35.859Z,100521.69
2023-05-19T11:40:07.204Z,100545.09
2023-05-19T11:42:35.313Z,100536.66
2023-05-19T11:45:03.518Z,100526.94
2023-05-19T11:47:46.026Z,100513.41
2023-05-19T11:50:20.383Z,100526.28
2023-05-19T11:52:47.999Z,100532.41
2023-05-19T11:55:19.477Z,100534.47
2023-05-19T11:58:04.007Z,100522.44
2023-05-19T12:00:42.133Z,100530.72
2023-05-19T12:03:10.103Z,100523.19
2023-05-19T12:05:43.476Z,100523.66
2023-05-19T12:08:12.315Z,100517.31
2023-05-19T12:10:40.183Z,100516.16
2023-05-19T12:13:11.045Z,100521.56
2023-05-19T12:15:38.905Z,100516.31
2023-05-19T12:18:06.608Z,100521.50
2023-05-19T12:20:35.521Z,100526.44
2023-05-19T12:23:03.168Z,100515.13
2023-05-19T12:25:30.485Z,100524.47
2023-05-19T12:28:04.906Z,100524.28
2023-05-19T12:30:33.634Z,100520.81
2023-05-19T12:33:02.927Z,100507.59
2023-05-19T12:35:36.181Z,100513.03
2023-05-19T12:38:09.503Z,100527.63
2023-05-19T12:40:38.587Z,100540.94
2023-05-19T12:43:06.673Z,100530.31
2023-05-19T12:45:37.399Z,100528.13
2023-05-19T12:48:16.125Z,100528.63
2023-05-19T12:50:47.410Z,100537.81
2023-05-19T12:53:17.775Z,100542.63
2023-05-19T12:55:45.827Z,100539.28
2023-05-19T12:58:13.592Z,100550.84
2023-05-19T13:00:44.781Z,100548.16
2023-05-19T13:03:19.974Z,100536.06
2023-05-19T13:05:50.422Z,100549.34
2023-05-19T13:08:20.592Z,100554.56
2023-05-19T13:10:49.231Z,100554.69
2023-05-19T13:13:16.649Z,100548.84
2023-05-19T13:15:46.157Z,100547.97
2023-05-19T13:18:14.354Z,100550.41
2023-05-19T13:20:44.374Z,100551.19
2023-05-19T13:23:12.229Z,100538.22
2023-05-19T13:25:39.626Z,100528.19
2023-05-19T13:28:07.007Z,100535.81
2023-05-19T13:30:36.464Z,100528.84
2023-05-19T13:33:04.061Z,100536.50
2023-05-19T13:35:38.286Z,100535.69
2023-05-19T13:38:07.027Z,100541.28
2023-05-19T13:40:34.968Z,100546.63
2023-05-19T13:43:03.648Z,100539.00
2023-05-19T13:45:31.074Z,100546.31
2023-05-19T13:47:58.288Z,100558.00
2023-05-19T13:50:25.492Z,100552.53
2023-05-19T13:52:52.546Z,100547.88
2023-05-19T13:55:19.621Z,100536.56
2023-05-19T13:57:46.527Z,100545.03
2023-05-19T14:00:14.521Z,100538.59
2023-05-19T14:02:42.367Z,100539.75
2023-05-19T14:05:09.684Z,100547.47
2023-05-19T14:07:37.058Z,100544.44
2023-05-19T14:10:06.793Z,100544.84
2023-05-19T14:12:47.814Z,100547.88
2023-05-19T14:15:22.735Z,100535.78
2023-05-19T14:17:49.671Z,100550.38
2023-05-19T14:20:16.631Z,100550.06
2023-05-19T14:22:43.623Z,100551.63
2023-05-19T14:25:10.604Z,100562.06
2023-05-19T14:27:39.750Z,100546.66
2023-05-19T14:30:08.062Z,100544.97
2023-05-19T14:32:35.191Z,100547.69
2023-05-19T14:35:02.487Z,100542.88
2023-05-19T14:37:31.684Z,100539.88
2023-05-19T14:39:59.403Z,100535.31
2023-05-19T14:42:26.420Z,100537.97
2023-05-19T14:44:53.401Z,100547.50
2023-05-19T14:47:20.353Z,100544.09
2023-05-19T14:49:47.460Z,100541.22
2023-05-19T14:52:14.483Z,100538.78
2023-05-19T14:54:41.489Z,100540.19
2023-05-19T14:57:08.530Z,100530.91
2023-05-19T14:59:39.365Z,100546.34
2023-05-19T15:02:06.431Z,100550.84
2023-05-19T15:04:33.369Z,100559.19
2023-05-19T15:09:30.168Z,100564.81
2023-05-19T15:11:58.218Z,100561.03
2023-05-19T15:14:26.205Z,100562.47
2023-05-19T15:16:54.801Z,100565.19
2023-05-19T15:19:21.758Z,100561.00
2023-05-19T15:21:50.670Z,100565.06
2023-05-19T15:24:17.685Z,100559.06
2023-05-19T15:26:45.509Z,100560.00
2023-05-19T15:29:12.455Z,100566.72
2023-05-19T15:31:39.472Z,100554.69
2023-05-19T15:34:06.474Z,100554.09
2023-05-19T15:36:33.593Z,100558.56
2023-05-19T15:39:00.560Z,100554.38
2023-05-19T15:41:27.471Z,100542.50
2023-05-19T15:43:54.421Z,100537.66
2023-05-19T15:46:22.723Z,100559.56
2023-05-19T15:48:49.798Z,100559.78
2023-05-19T15:51:16.789Z,100539.50
2023-05-19T15:53:43.758Z,100549.88
2023-05-19T15:56:11.035Z,100546.75
2023-05-19T15:58:37.937Z,100551.06
2023-05-19T16:01:05.738Z,100545.66
2023-05-19T16:03:32.823Z,100542.81
2023-05-19T16:06:01.076Z,100534.94
2023-05-19T16:08:28.620Z,100536.28
2023-05-19T16:10:55.964Z,100537.66
2023-05-19T16:13:23.246Z,100540.25
2023-05-19T16:15:50.479Z,100527.50
2023-05-19T16:18:17.399Z,100531.34
2023-05-19T16:20:44.753Z,100531.25
2023-05-19T16:23:11.691Z,100535.22
2023-05-19T16:25:39.073Z,100524.38
2023-05-19T16:28:06.221Z,100516.47
2023-05-19T16:30:33.422Z,100517.28
2023-05-19T16:33:00.572Z,100517.31
2023-05-19T16:35:29.409Z,100512.53
2023-05-19T16:37:56.672Z,100507.97
2023-05-19T16:40:23.908Z,100499.28
2023-05-19T16:42:53.409Z,100516.09
2023-05-19T16:45:20.491Z,100507.56
2023-05-19T16:47:47.520Z,100521.22
2023-05-19T16:50:14.595Z,100522.22
2023-05-19T16:52:41.607Z,100512.69
2023-05-19T16:55:09.200Z,100509.59
2023-05-19T16:57:36.228Z,100505.06
2023-05-19T17:00:03.686Z,100509.81
2023-05-19T17:02:30.989Z,100516.59
2023-05-19T17:04:57.939Z,100519.38
2023-05-19T17:07:24.980Z,100511.75
2023-05-19T17:09:53.940Z,100513.53
2023-05-19T17:12:22.214Z,100506.13
2023-05-19T17:14:50.402Z,100506.31
2023-05-19T17:17:18.019Z,100501.56
2023-05-19T17:19:45.078Z,100507.53
2023-05-19T17:22:12.093Z,100503.38
2023-05-19T17:24:39.488Z,100494.88
2023-05-19T17:27:06.558Z,100492.75
2023-05-19T17:29:34.515Z,100492.47
2023-05-19T17:32:04.602Z,100493.25
2023-05-19T17:34:31.605Z,100496.75
2023-05-19T17:36:58.606Z,100504.59
2023-05-19T17:39:25.594Z,100498.22
2023-05-19T17:41:52.525Z,100497.91
2023-05-19T17:44:19.517Z,100494.41
2023-05-19T17:46:46.489Z,100493.59
2023-05-19T17:49:13.898Z,100497.31
2023-05-19T17:51:41.334Z,100499.84
2023-05-19T17:54:08.760Z,100498.66
2023-05-19T17:56:40.932Z,100507.28
2023-05-19T17:59:08.267Z,100510.78
2023-05-19T18:01:35.722Z,100512.88
2023-05-19T18:04:03.783Z,100519.19
2023-05-19T18:06:32.168Z,100518.41
2023-05-19T18:09:02.241Z,100526.53
2023-05-19T18:11:30.092Z,100516.75
2023-05-19T18:13:57.548Z,100512.94
2023-05-19T18:16:25.616Z,100515.56
2023-05-19T18:18:52.750Z,100516.38
2023-05-19T18:21:19.942Z,100519.19
2023-05-19T18:23:47.975Z,100524.75
2023-05-19T18:26:15.349Z,100517.66
2023-05-19T18:28:44.387Z,100513.31
2023-05-19T18:31:17.392Z,100519.13
2023-05-19T18:33:46.809Z,100543.91
2023-05-19T18:36:16.509Z,100544.91
2023-05-19T18:38:43.574Z,100535.38
2023-05-19T18:41:10.911Z,100536.84
2023-05-19T18:43:38.816Z,100541.56
2023-05-19T18:46:06.113Z,100545.19
2023-05-19T18:48:33.353Z,100549.34
2023-05-19T18:51:00.603Z,100555.31
2023-05-19T18:53:27.529Z,100556.13
2023-05-19T18:55:54.523Z,100564.41
2023-05-19T18:58:21.842Z,100549.34
2023-05-19T19:00:50.332Z,100543.63
2023-05-19T19:03:17.563Z,100536.84
2023-05-19T19:05:44.705Z,100551.34
2023-05-19T19:08:11.715Z,100565.66
2023-05-19T19:10:40.701Z,100580.50
2023-05-19T19:13:07.724Z,100573.63
2023-05-19T19:15:34.714Z,100556.41
2023-05-19T19:18:02.349Z,100554.22
2023-05-19T19:20:29.537Z,100544.59
2023-05-19T19:22:56.849Z,100549.38
2023-05-19T19:25:23.937Z,100547.94
2023-05-19T19:27:51.323Z,100542.97
2023-05-19T19:30:18.529Z,100540.56
2023-05-19T19:32:45.740Z,100535.16
2023-05-19T19:35:12.749Z,100551.53
2023-05-19T19:37:40.026Z,100559.78
2023-05-19T19:40:07.753Z,100561.91
2023-05-19T19:42:34.893Z,100561.28
2023-05-19T19:45:02.198Z,100562.41
2023-05-19T19:47:29.539Z,100570.97
2023-05-19T19:49:58.984Z,100561.59
2023-05-19T19:52:26.028Z,100556.19
2023-05-19T19:54:53.174Z,100571.13
2023-05-19T19:57:20.694Z,100560.97
2023-05-19T19:59:47.962Z,100568.66
2023-05-19T20:02:15.094Z,100563.00
2023-05-19T20:04:42.376Z,100573.22
2023-05-19T20:07:09.438Z,100580.25
2023-05-19T20:09:36.399Z,100574.72
2023-05-19T20:12:03.524Z,100569.75
2023-05-19T20:14:30.809Z,100562.81
2023-05-19T20:16:57.826Z,100563.94
2023-05-19T20:19:25.652Z,100553.50
2023-05-19T20:21:52.578Z,100543.22
2023-05-19T20:24:19.762Z,100524.19
2023-05-19T20:26:47.018Z,100532.72
2023-05-19T20:29:14.091Z,100528.69
2023-05-19T20:31:41.205Z,100524.81
2023-05-19T20:34:08.283Z,100521.75
2023-05-19T20:36:35.540Z,100524.25
2023-05-19T20:39:03.661Z,100531.38
2023-05-19T20:41:31.311Z,100538.81
2023-05-19T20:43:58.329Z,100534.22
2023-05-19T20:46:25.553Z,100549.38
2023-05-19T20:48:52.629Z,100540.81
2023-05-19T20:51:20.181Z,100528.69
2023-05-19T20:53:47.178Z,100525.47
2023-05-19T20:56:14.202Z,100526.34
2023-05-19T20:58:41.178Z,100531.09
2023-05-19T21:01:09.134Z,100527.81
2023-05-19T21:03:36.450Z,100525.56
2023-05-19T21:06:03.558Z,100522.00
2023-05-19T21:08:30.495Z,100516.56
2023-05-19T21:10:57.563Z,100516.22
2023-05-19T21:13:24.561Z,100520.34
2023-05-19T21:15:51.508Z,100512.47
2023-05-19T21:18:18.458Z,100518.72
2023-05-19T21:20:45.484Z,100512.00
2023-05-19T21:23:12.462Z,100520.03
2023-05-19T21:25:40.157Z,100512.78
2023-05-19T21:28:07.130Z,100504.44
2023-05-19T21:30:34.410Z,100498.81
2023-05-19T21:33:01.639Z,100484.28
2023-05-19T21:35:28.668Z,100482.88
2023-05-19T21:37:55.825Z,100482.25
2023-05-19T21:40:22.935Z,100479.81
2023-05-19T21:42:49.874Z,100469.31
2023-05-19T21:45:16.823Z,100473.94
2023-05-19T21:47:43.829Z,100472.94
2023-05-19T21:50:11.189Z,100473.03
2023-05-19T21:52:38.632Z,100480.97
2023-05-19T21:55:06.607Z,100480.81
2023-05-19T21:57:33.560Z,100481.63
2023-05-19T22:00:00.601Z,100471.91
2023-05-19T22:02:27.610Z,100479.19
2023-05-19T22:04:54.583Z,100478.84
2023-05-19T22:07:26.705Z,100473.41
2023-05-19T22:09:54.165Z,100473.13
2023-05-19T22:12:21.356Z,100476.75
2023-05-19T22:14:48.380Z,100477.41
2023-05-19T22:17:15.505Z,100469.91
2023-05-19T22:19:42.509Z,100465.28
2023-05-19T22:22:14.108Z,100456.72
2023-05-19T22:24:42.011Z,100456.75
2023-05-19T22:27:09.430Z,100454.09
2023-05-19T22:29:39.517Z,100447.38
2023-05-19T22:32:11.652Z,100445.13
2023-05-19T22:34:39.284Z,100450.81
2023-05-19T22:37:06.382Z,100450.81
2023-05-19T22:39:33.353Z,100445.31
2023-05-19T22:42:00.507Z,100444.94
2023-05-19T22:44:27.586Z,100446.22
2023-05-19T22:46:54.647Z,100439.19
2023-05-19T22:49:26.130Z,100441.38
2023-05-19T22:51:53.228Z,100443.88
2023-05-19T22:54:20.231Z,100449.13
2023-05-19T22:56:48.846Z,100445.66
2023-05-19T22:59:17.944Z,100448.97
2023-05-19T23:01:46.621Z,100436.78
2023-05-19T23:04:14.200Z,100433.38
2023-05-19T23:06:41.248Z,100428.47
2023-05-19T23:09:08.277Z,100429.28
2023-05-19T23:11:35.909Z,100419.84
2023-05-19T23:14:02.942Z,100417.53
2023-05-19T23:16:31.215Z,100418.16
2023-05-19T23:18:58.221Z,100427.81
2023-05-19T23:21:25.366Z,100409.03
2023-05-19T23:23:52.415Z,100417.53
2023-05-19T23:26:19.679Z,100417.88
2023-05-19T23:28:47.036Z,100416.06
2023-05-19T23:31:14.000Z,100420.19
2023-05-19T23:33:41.128Z,100422.81
2023-05-19T23:36:10.058Z,100419.50
2023-05-19T23:38:37.782Z,100419.50
2023-05-19T23:41:05.201Z,100425.06
2023-05-19T23:43:32.579Z,100426.25
2023-05-19T23:46:00.518Z,100430.00
2023-05-19T23:48:29.182Z,100432.91
2023-05-19T23:50:57.178Z,100434.59
2023-05-19T23:53:24.679Z,100438.22
2023-05-19T23:55:51.800Z,100434.28
2023-05-19T23:58:19.194Z,100436.06
